createdAt,value
2017-08-27T00:01:14.761Z,14.77
2017-08-27T00:03:44.243Z,12.60
2017-08-27T00:06:13.716Z,11.33
2017-08-27T00:08:43.165Z,9.33
2017-08-27T00:11:12.609Z,12.03
2017-08-27T00:13:42.057Z,14.17
2017-08-27T00:16:11.510Z,11.13
2017-08-27T00:18:40.960Z,16.33
2017-08-27T00:21:10.417Z,14.37
2017-08-27T00:23:39.868Z,11.10
2017-08-27T00:26:09.321Z,19.07
2017-08-27T00:28:38.771Z,9.47
2017-08-27T00:31:08.269Z,11.13
2017-08-27T00:33:37.701Z,9.30
2017-08-27T00:36:07.145Z,20.40
2017-08-27T00:38:36.603Z,14.17
2017-08-27T00:41:06.051Z,17.97
2017-08-27T00:43:35.506Z,10.90
2017-08-27T00:46:04.689Z,12.30
2017-08-27T00:48:33.942Z,11.83
2017-08-27T00:51:03.416Z,10.57
2017-08-27T00:53:32.853Z,9.50
2017-08-27T00:56:02.311Z,14.93
2017-08-27T00:58:31.784Z,11.67
2017-08-27T01:01:01.325Z,8.13
2017-08-27T01:03:30.569Z,11.20
2017-08-27T01:05:59.521Z,18.07
2017-08-27T01:08:28.982Z,10.70
2017-08-27T01:10:58.473Z,7.30
2017-08-27T01:13:27.891Z,9.63
2017-08-27T01:15:57.326Z,16.20
2017-08-27T01:18:26.600Z,16.37
2017-08-27T01:20:56.035Z,8.37
2017-08-27T01:23:25.140Z,10.13
2017-08-27T01:25:54.713Z,11.90
2017-08-27T01:28:24.172Z,10.70
2017-08-27T01:30:53.613Z,9.27
2017-08-27T01:33:22.872Z,8.70
2017-08-27T01:35:52.312Z,12.43
2017-08-27T01:38:21.816Z,11.40
2017-08-27T01:40:51.273Z,13.57
2017-08-27T01:43:20.735Z,8.97
2017-08-27T01:45:50.176Z,12.30
2017-08-27T01:48:19.640Z,9.23
2017-08-27T01:50:49.078Z,9.90
2017-08-27T01:53:18.524Z,12.00
2017-08-27T01:55:47.988Z,13.30
2017-08-27T01:58:17.456Z,9.40
2017-08-27T02:00:46.898Z,8.73
2017-08-27T02:03:16.363Z,8.53
2017-08-27T02:05:45.823Z,9.00
2017-08-27T02:08:14.907Z,9.07
2017-08-27T02:10:44.361Z,15.10
2017-08-27T02:13:13.829Z,10.30
2017-08-27T02:15:43.277Z,15.00
2017-08-27T02:18:12.728Z,10.47
2017-08-27T02:20:42.178Z,14.50
2017-08-27T02:23:11.631Z,12.13
2017-08-27T02:25:41.086Z,10.80
2017-08-27T02:28:10.562Z,13.20
2017-08-27T02:30:39.999Z,9.63
2017-08-27T02:33:09.507Z,11.07
2017-08-27T02:35:38.946Z,11.70
2017-08-27T02:38:08.400Z,11.33
2017-08-27T02:40:37.874Z,12.07
2017-08-27T02:43:07.308Z,16.30
2017-08-27T02:45:36.746Z,9.17
2017-08-27T02:48:06.196Z,9.30
2017-08-27T02:50:35.633Z,14.47
2017-08-27T02:53:05.094Z,12.00
2017-08-27T02:55:34.551Z,13.00
2017-08-27T02:58:04.001Z,18.50
2017-08-27T03:00:33.449Z,14.03
2017-08-27T03:03:02.896Z,11.10
2017-08-27T03:05:32.347Z,12.33
2017-08-27T03:08:01.791Z,11.60
2017-08-27T03:10:31.496Z,14.97
2017-08-27T03:13:00.953Z,12.23
2017-08-27T03:15:30.401Z,13.80
2017-08-27T03:17:59.865Z,8.80
2017-08-27T03:20:29.308Z,9.77
2017-08-27T03:22:58.444Z,12.83
2017-08-27T03:25:27.896Z,15.10
2017-08-27T03:27:57.350Z,12.57
2017-08-27T03:30:26.868Z,12.97
2017-08-27T03:32:56.318Z,13.77
2017-08-27T03:35:25.759Z,13.10
2017-08-27T03:37:55.226Z,10.10
2017-08-27T03:40:24.735Z,11.40
2017-08-27T03:42:54.176Z,13.37
2017-08-27T03:45:23.656Z,15.07
2017-08-27T03:47:53.271Z,15.00
2017-08-27T03:50:22.751Z,9.97
2017-08-27T03:52:52.168Z,9.07
2017-08-27T03:55:21.783Z,16.13
2017-08-27T03:57:51.247Z,14.77
2017-08-27T04:00:20.731Z,9.70
2017-08-27T04:02:50.003Z,10.50
2017-08-27T04:05:19.466Z,13.90
2017-08-27T04:07:48.934Z,10.63
2017-08-27T04:10:18.429Z,10.43
2017-08-27T04:12:47.893Z,13.13
2017-08-27T04:15:17.466Z,17.20
2017-08-27T04:17:46.928Z,10.70
2017-08-27T04:20:16.421Z,12.00
2017-08-27T04:22:45.876Z,12.17
2017-08-27T04:25:15.411Z,8.90
2017-08-27T04:27:44.846Z,16.63
2017-08-27T04:30:14.443Z,10.97
2017-08-27T04:32:43.892Z,22.93
2017-08-27T04:35:13.389Z,11.83
2017-08-27T04:37:42.828Z,20.30
2017-08-27T04:40:12.301Z,14.70
2017-08-27T04:42:41.766Z,10.60
2017-08-27T04:45:11.516Z,17.37
2017-08-27T04:47:40.981Z,11.90
2017-08-27T04:50:10.456Z,14.73
2017-08-27T04:52:39.910Z,21.60
2017-08-27T04:55:09.410Z,9.50
2017-08-27T04:57:38.836Z,12.63
2017-08-27T05:00:08.333Z,11.40
2017-08-27T05:02:37.614Z,9.20
2017-08-27T05:05:07.112Z,9.00
2017-08-27T05:07:36.557Z,14.10
2017-08-27T05:10:06.125Z,12.27
2017-08-27T05:12:35.586Z,9.57
2017-08-27T05:15:05.067Z,11.30
2017-08-27T05:17:34.497Z,14.20
2017-08-27T05:20:03.831Z,14.27
2017-08-27T05:22:33.268Z,11.97
2017-08-27T05:25:02.761Z,13.47
2017-08-27T05:27:32.207Z,12.17
2017-08-27T05:30:01.696Z,14.23
2017-08-27T05:32:31.381Z,13.60
2017-08-27T05:35:00.843Z,10.43
2017-08-27T05:37:30.129Z,12.67
2017-08-27T05:39:59.561Z,11.20
2017-08-27T05:42:29.019Z,10.57
2017-08-27T05:44:58.466Z,13.17
2017-08-27T05:47:27.987Z,11.43
2017-08-27T05:49:57.408Z,17.23
2017-08-27T05:52:26.852Z,11.50
2017-08-27T05:54:56.312Z,12.40
2017-08-27T05:57:25.744Z,11.40
2017-08-27T05:59:55.197Z,11.90
2017-08-27T06:02:24.658Z,13.63
2017-08-27T06:04:54.168Z,13.13
2017-08-27T06:07:23.630Z,11.77
2017-08-27T06:09:53.070Z,10.13
2017-08-27T06:12:22.516Z,12.77
2017-08-27T06:14:51.977Z,13.63
2017-08-27T06:17:21.425Z,12.27
2017-08-27T06:19:50.993Z,11.90
2017-08-27T06:22:20.449Z,11.33
2017-08-27T06:24:49.916Z,18.00
2017-08-27T06:27:19.192Z,22.50
2017-08-27T06:29:48.641Z,14.80
2017-08-27T06:32:18.089Z,20.97
2017-08-27T06:34:47.550Z,18.63
2017-08-27T06:37:17.003Z,17.27
2017-08-27T06:39:46.464Z,17.40
2017-08-27T06:42:15.924Z,14.27
2017-08-27T06:44:45.364Z,15.77
2017-08-27T06:47:14.828Z,13.83
2017-08-27T06:49:44.300Z,22.43
2017-08-27T06:52:13.753Z,16.87
2017-08-27T06:54:43.217Z,26.03
2017-08-27T06:57:12.699Z,21.73
2017-08-27T06:59:42.157Z,12.07
2017-08-27T07:02:11.615Z,17.43
2017-08-27T07:04:40.916Z,17.17
2017-08-27T07:07:10.369Z,17.27
2017-08-27T07:09:39.664Z,22.97
2017-08-27T07:12:09.186Z,17.77
2017-08-27T07:14:38.647Z,22.43
2017-08-27T07:17:08.104Z,18.50
2017-08-27T07:19:37.553Z,26.67
2017-08-27T07:22:07.046Z,19.90
2017-08-27T07:24:36.597Z,17.90
2017-08-27T07:27:06.076Z,23.50
2017-08-27T07:29:35.529Z,22.87
2017-08-27T07:32:04.983Z,51.60
2017-08-27T07:34:34.464Z,35.87
2017-08-27T07:37:03.924Z,68.27
2017-08-27T07:39:33.369Z,49.33
2017-08-27T07:42:02.903Z,43.13
2017-08-27T07:44:32.412Z,42.20
2017-08-27T07:47:02.120Z,44.30
2017-08-27T07:49:31.564Z,44.17
2017-08-27T07:52:01.058Z,50.53
2017-08-27T07:54:30.511Z,39.60
2017-08-27T07:56:59.969Z,37.43
2017-08-27T07:59:29.424Z,37.33
2017-08-27T08:01:59.863Z,35.33
2017-08-27T08:04:29.292Z,35.07
2017-08-27T08:06:58.838Z,30.10
2017-08-27T08:09:28.283Z,28.13
2017-08-27T08:11:57.821Z,29.53
2017-08-27T08:14:28.008Z,34.60
2017-08-27T08:16:57.646Z,24.37
2017-08-27T08:19:27.272Z,20.87
2017-08-27T08:21:56.917Z,24.47
2017-08-27T08:24:26.635Z,21.77
2017-08-27T08:27:00.408Z,26.17
2017-08-27T08:29:37.708Z,32.90
2017-08-27T08:32:08.873Z,31.00
2017-08-27T08:34:44.510Z,35.57
2017-08-27T08:37:18.822Z,32.73
2017-08-27T08:39:53.249Z,30.80
2017-08-27T08:42:29.454Z,25.90
2017-08-27T08:45:03.582Z,24.70
2017-08-27T08:47:39.556Z,21.47
2017-08-27T08:50:13.494Z,24.07
2017-08-27T08:52:45.011Z,20.13
2017-08-27T08:55:22.196Z,20.70
2017-08-27T08:57:58.494Z,22.40
2017-08-27T09:00:35.333Z,30.47
2017-08-27T09:03:09.218Z,20.10
2017-08-27T09:05:39.210Z,20.03
2017-08-27T09:08:08.657Z,16.53
2017-08-27T09:10:38.113Z,13.03
2017-08-27T09:13:07.598Z,13.80
2017-08-27T09:15:37.058Z,11.43
2017-08-27T09:18:06.501Z,10.23
2017-08-27T09:20:35.944Z,9.03
2017-08-27T09:23:05.398Z,6.93
2017-08-27T09:25:35.059Z,7.57
2017-08-27T09:28:04.477Z,7.50
2017-08-27T09:30:33.961Z,6.10
2017-08-27T09:33:03.433Z,6.30
2017-08-27T09:35:32.983Z,5.80
2017-08-27T09:38:02.485Z,5.57
2017-08-27T09:40:35.851Z,8.90
2017-08-27T09:43:08.680Z,6.87
2017-08-27T09:45:41.822Z,5.97
2017-08-27T09:48:11.538Z,5.90
2017-08-27T09:50:40.992Z,10.90
2017-08-27T09:53:10.440Z,9.03
2017-08-27T09:55:39.877Z,5.83
2017-08-27T09:58:09.422Z,7.83
2017-08-27T10:00:44.214Z,7.30
2017-08-27T10:03:17.127Z,7.03
2017-08-27T10:05:51.272Z,9.30
2017-08-27T10:08:27.905Z,6.07
2017-08-27T10:11:01.508Z,7.97
2017-08-27T10:13:32.165Z,6.20
2017-08-27T10:16:04.839Z,7.37
2017-08-27T10:18:38.596Z,9.93
2017-08-27T10:21:11.301Z,5.93
2017-08-27T10:23:46.920Z,6.90
2017-08-27T10:26:24.447Z,6.80
2017-08-27T10:28:56.546Z,9.33
2017-08-27T10:31:29.867Z,8.80
2017-08-27T10:33:59.363Z,6.77
2017-08-27T10:36:33.072Z,10.40
2017-08-27T10:39:05.743Z,6.27
2017-08-27T10:41:38.823Z,4.90
2017-08-27T10:44:13.427Z,9.13
2017-08-27T10:46:51.639Z,4.77
2017-08-27T10:49:24.977Z,7.17
2017-08-27T10:51:59.283Z,9.67
2017-08-27T10:54:34.733Z,5.63
2017-08-27T10:57:08.327Z,5.20
2017-08-27T10:59:43.968Z,4.67
2017-08-27T11:02:20.377Z,7.90
2017-08-27T11:04:57.153Z,5.97
2017-08-27T11:07:32.995Z,7.70
2017-08-27T11:10:06.934Z,5.17
2017-08-27T11:12:43.128Z,4.93
2017-08-27T11:15:17.795Z,6.53
2017-08-27T11:17:52.543Z,6.47
2017-08-27T11:20:23.468Z,4.37
2017-08-27T11:22:55.728Z,6.20
2017-08-27T11:25:30.090Z,6.73
2017-08-27T11:28:02.925Z,6.00
2017-08-27T11:30:37.968Z,5.80
2017-08-27T11:33:13.105Z,7.70
2017-08-27T11:35:45.963Z,6.60
2017-08-27T11:38:20.777Z,4.47
2017-08-27T11:40:53.050Z,10.53
2017-08-27T11:43:29.061Z,9.00
2017-08-27T11:46:06.409Z,5.37
2017-08-27T11:48:40.820Z,5.97
2017-08-27T11:51:10.298Z,6.90
2017-08-27T11:53:44.239Z,6.10
2017-08-27T11:56:20.444Z,7.70
2017-08-27T11:58:54.140Z,6.67
2017-08-27T12:01:30.427Z,6.70
2017-08-27T12:04:03.674Z,4.50
2017-08-27T12:06:34.095Z,8.80
2017-08-27T12:09:10.287Z,6.60
2017-08-27T12:11:40.028Z,6.73
2017-08-27T12:14:10.661Z,8.00
2017-08-27T12:16:40.269Z,5.47
2017-08-27T12:19:09.719Z,10.43
2017-08-27T12:21:39.312Z,4.57
2017-08-27T12:24:08.757Z,5.50
2017-08-27T16:13:00.533Z,9.00
2017-08-27T16:15:29.778Z,8.47
2017-08-27T16:17:59.239Z,6.70
2017-08-27T16:20:28.701Z,11.13
2017-08-27T16:22:57.966Z,6.10
2017-08-27T16:25:27.221Z,12.33
2017-08-27T16:27:56.478Z,8.03
2017-08-27T16:30:25.722Z,9.73
2017-08-27T16:32:55.037Z,12.53
2017-08-27T16:35:24.544Z,10.97
2017-08-27T16:37:53.825Z,10.10
2017-08-27T16:40:23.070Z,9.30
